Time;durP1;ratioP1;P1;durP2;ratioP2;P2;SDS_P1;SDS_P2;PMS_P1;PMS_P2;Temp;Humidity;BMP_temperature;BMP_pressure;BME280_temperature;BME280_humidity;BME280_pressure;Samples;Min_cycle;Max_cycle;Signal;HPM_P1;HPM_P2
2021/03/27 00:02:16;;;;;;;;;;;;;;;;;;5001634;28;19912;-77
2021/03/27 00:04:45;;;;;;;;;;;;;;;;;;5017638;28;19917;-77
2021/03/27 00:07:18;;;;;;;;;;;;;;;;;;5033574;28;19920;-77
2021/03/27 00:10:02;;;;;;;;;;;;;;;;;;5050550;28;19920;-77
2021/03/27 00:12:32;;;;;;;;;;;;;;;;;;5049931;28;19928;-77
2021/03/27 00:15:02;;;;;;;;;;;;;;;;;;5030785;28;19917;-77
2021/03/27 00:17:33;;;;;;;;;;;;;;;;;;5050350;28;20398;-77
2021/03/27 00:20:00;;;;;;;;;;;;;;;;;;5050915;28;19912;-77
2021/03/27 00:22:27;;;;;;;;;;;;;;;;;;5048719;28;19916;-77
2021/03/27 00:24:53;;;;;;;;;;;;;;;;;;5032067;28;20031;-77
2021/03/27 00:27:19;;;;;;;;;;;;;;;;;;5049810;28;20054;-77
2021/03/27 00:29:45;;;;;;;;;;;;;;;;;;5049470;28;19968;-77
2021/03/27 00:32:16;;;;;;;;;;;;;;;;;;5048594;28;20037;-77
2021/03/27 00:34:43;;;;;;;;;;;;;;;;;;5049158;28;19917;-77
2021/03/27 00:37:11;;;;;;;;;;;;;;;;;;5053413;28;19921;-77
2021/03/27 00:39:39;;;;;;;;;;;;;;;;;;5053605;28;19913;-77
2021/03/27 00:42:06;;;;;;;;;;;;;;;;;;5053325;28;19927;-77
2021/03/27 00:44:36;;;;;;;;;;;;;;;;;;5054028;28;19921;-77
2021/03/27 00:47:02;;;;;;;;;;;;;;;;;;5054271;28;20317;-77
2021/03/27 00:49:57;;;;;;;;;;;;;;;;;;5087013;28;19921;-77
2021/03/27 00:52:22;;;;;;;;;;;;;;;;;;5052567;28;19921;-77
2021/03/27 00:54:50;;;;;;;;;;;;;;;;;;5050445;28;20371;-77
2021/03/27 00:57:35;;;;;;;;;;;;;;;;;;5067709;28;20347;-77
2021/03/27 01:00:05;;;;;;;;;;;;;;;;;;5067739;28;19913;-77
2021/03/27 01:02:31;;;;;;;;;;;;;;;;;;5067048;28;19916;-76
2021/03/27 01:04:56;;;;;;;;;;;;;;;;;;5032896;28;19970;-76
2021/03/27 01:07:22;;;;;;;;;;;;;;;;;;5037452;28;19916;-76
2021/03/27 01:09:51;;;;;;;;;;;;;;;;;;5053565;28;19963;-76
2021/03/27 01:12:19;;;;;;;;;;;;;;;;;;5053764;28;19965;-76
2021/03/27 01:14:45;;;;;;;;;;;;;;;;;;5053917;28;19919;-76
2021/03/27 01:17:11;;;;;;;;;;;;;;;;;;5049428;28;19921;-77
2021/03/27 01:19:39;;;;;;;;;;;;;;;;;;5050208;28;19924;-77
2021/03/27 01:22:06;;;;;;;;;;;;;;;;;;5067189;28;20306;-76
2021/03/27 01:24:31;;;;;;;;;;;;;;;;;;5066239;28;19928;-77
2021/03/27 01:27:16;;;;;;;;;;;;;;;;;;5066706;28;20318;-76
2021/03/27 01:29:43;;;;;;;;;;;;;;;;;;5066724;28;20011;-76
2021/03/27 01:32:15;;;;;;;;;;;;;;;;;;5068247;28;19962;-76
2021/03/27 01:34:44;;;;;;;;;;;;;;;;;;5053979;28;19922;-76
2021/03/27 01:37:12;;;;;;;;;;;;;;;;;;5069275;28;19917;-76
2021/03/27 01:39:51;;;;;;;;;;;;;;;;;;5085945;28;20318;-76
2021/03/27 01:42:31;;;;;;;;;;;;;;;;;;5052312;28;19923;-76
2021/03/27 01:45:05;;;;;;;;;;;;;;;;;;5053122;28;19924;-76
2021/03/27 01:47:32;;;;;;;;;;;;;;;;;;5085860;28;19916;-76
2021/03/27 01:49:57;;;;;;;;;;;;;;;;;;5074074;28;20015;-76
2021/03/27 01:52:38;;;;;;;;;;;;;;;;;;5053585;28;19970;-76
2021/03/27 01:55:03;;;;;;;;;;;;;;;;;;5053752;28;19920;-76
2021/03/27 01:57:30;;;;;;;;;;;;;;;;;;5052870;28;19913;-76
2021/03/27 01:59:57;;;;;;;;;;;;;;;;;;5086294;28;20513;-76
2021/03/27 02:02:22;;;;;;;;;;;;;;;;;;5086654;28;19956;-76
2021/03/27 02:04:56;;;;;;;;;;;;;;;;;;5052819;28;20001;-76
2021/03/27 02:07:27;;;;;;;;;;;;;;;;;;5065590;28;19917;-76
2021/03/27 02:09:58;;;;;;;;;;;;;;;;;;5064979;28;20383;-76
2021/03/27 02:12:30;;;;;;;;;;;;;;;;;;5066029;28;19916;-76
2021/03/27 02:15:00;;;;;;;;;;;;;;;;;;5045803;28;19919;-76
2021/03/27 02:17:28;;;;;;;;;;;;;;;;;;5052416;28;20450;-76
2021/03/27 02:20:13;;;;;;;;;;;;;;;;;;5053688;28;20039;-76
2021/03/27 02:22:59;;;;;;;;;;;;;;;;;;5049245;28;19917;-76
2021/03/27 02:25:28;;;;;;;;;;;;;;;;;;5051206;28;20398;-76
2021/03/27 02:28:00;;;;;;;;;;;;;;;;;;5052169;28;19913;-76
2021/03/27 02:30:26;;;;;;;;;;;;;;;;;;5052253;28;19919;-76
2021/03/27 02:32:51;;;;;;;;;;;;;;;;;;5035674;28;19923;-76
2021/03/27 02:35:19;;;;;;;;;;;;;;;;;;5053244;28;19916;-76
2021/03/27 02:38:00;;;;;;;;;;;;;;;;;;5052215;28;19912;-76
2021/03/27 02:40:28;;;;;;;;;;;;;;;;;;5051505;28;19963;-76
2021/03/27 02:43:02;;;;;;;;;;;;;;;;;;5084873;28;19917;-76
2021/03/27 02:45:30;;;;;;;;;;;;;;;;;;5083509;28;19916;-76
2021/03/27 02:48:03;;;;;;;;;;;;;;;;;;5083893;28;19935;-76
2021/03/27 02:50:58;;;;;;;;;;;;;;;;;;5083675;28;19999;-76
2021/03/27 02:53:25;;;;;;;;;;;;;;;;;;5040521;28;20379;-76
2021/03/27 02:55:56;;;;;;;;;;;;;;;;;;5067762;28;19924;-76
2021/03/27 02:58:29;;;;;;;;;;;;;;;;;;5051466;28;20039;-76
2021/03/27 03:01:02;;;;;;;;;;;;;;;;;;5084954;28;19920;-76
2021/03/27 03:03:27;;;;;;;;;;;;;;;;;;5035170;28;19996;-76
2021/03/27 03:05:56;;;;;;;;;;;;;;;;;;5051042;28;19952;-76
2021/03/27 03:08:42;;;;;;;;;;;;;;;;;;5068202;28;20003;-76
2021/03/27 03:11:09;;;;;;;;;;;;;;;;;;5051063;28;19978;-76
2021/03/27 03:14:01;;;;;;;;;;;;;;;;;;5085028;28;19912;-76
2021/03/27 03:16:27;;;;;;;;;;;;;;;;;;5051423;28;19913;-76
2021/03/27 03:19:16;;;;;;;;;;;;;;;;;;5034983;28;19917;-76
2021/03/27 03:21:43;;;;;;;;;;;;;;;;;;5036508;28;19948;-76
2021/03/27 03:24:12;;;;;;;;;;;;;;;;;;5047787;28;19917;-76
2021/03/27 03:26:43;;;;;;;;;;;;;;;;;;5032553;28;19916;-76
2021/03/27 03:29:12;;;;;;;;;;;;;;;;;;5031296;28;19966;-75
2021/03/27 03:31:56;;;;;;;;;;;;;;;;;;5032338;28;19928;-75
2021/03/27 03:34:43;;;;;;;;;;;;;;;;;;5036210;28;19925;-75
2021/03/27 03:37:17;;;;;;;;;;;;;;;;;;5034701;28;20570;-75
2021/03/27 03:40:01;;;;;;;;;;;;;;;;;;5050906;28;20421;-75
2021/03/27 03:42:45;;;;;;;;;;;;;;;;;;5031922;28;19917;-75
2021/03/27 03:45:14;;;;;;;;;;;;;;;;;;5066654;28;19913;-75
2021/03/27 03:47:47;;;;;;;;;;;;;;;;;;5085017;28;19967;-75
2021/03/27 03:50:14;;;;;;;;;;;;;;;;;;5067873;28;19916;-75
2021/03/27 03:52:40;;;;;;;;;;;;;;;;;;5084438;28;19916;-75
2021/03/27 03:55:30;;;;;;;;;;;;;;;;;;5084022;28;20023;-75
2021/03/27 03:58:16;;;;;;;;;;;;;;;;;;5050421;28;20387;-75
2021/03/27 04:00:41;;;;;;;;;;;;;;;;;;5019617;28;20418;-75
2021/03/27 04:03:16;;;;;;;;;;;;;;;;;;5048790;28;19916;-75
2021/03/27 04:05:42;;;;;;;;;;;;;;;;;;5050058;28;19923;-75
2021/03/27 04:08:13;;;;;;;;;;;;;;;;;;5049219;28;19964;-75
2021/03/27 04:10:39;;;;;;;;;;;;;;;;;;5031834;28;19913;-75
2021/03/27 04:13:09;;;;;;;;;;;;;;;;;;5032289;28;19912;-75
2021/03/27 04:15:36;;;;;;;;;;;;;;;;;;5029022;28;19913;-74
2021/03/27 04:18:17;;;;;;;;;;;;;;;;;;5063258;28;20402;-75
2021/03/27 04:20:52;;;;;;;;;;;;;;;;;;5031971;28;19960;-75
2021/03/27 04:23:19;;;;;;;;;;;;;;;;;;5046788;28;19920;-75
2021/03/27 04:25:48;;;;;;;;;;;;;;;;;;5065193;28;19966;-75
2021/03/27 04:28:33;;;;;;;;;;;;;;;;;;5034173;28;19970;-75
2021/03/27 04:31:05;;;;;;;;;;;;;;;;;;5051010;28;19916;-75
2021/03/27 04:33:45;;;;;;;;;;;;;;;;;;5083651;28;19913;-75
2021/03/27 04:36:17;;;;;;;;;;;;;;;;;;5083905;28;20306;-75
2021/03/27 04:38:56;;;;;;;;;;;;;;;;;;5049819;28;19928;-75
2021/03/27 04:41:26;;;;;;;;;;;;;;;;;;5050271;28;20383;-75
2021/03/27 04:43:53;;;;;;;;;;;;;;;;;;5033824;28;19982;-75
2021/03/27 04:46:18;;;;;;;;;;;;;;;;;;5049883;28;19970;-75
2021/03/27 04:48:49;;;;;;;;;;;;;;;;;;5050068;28;20011;-75
2021/03/27 04:51:21;;;;;;;;;;;;;;;;;;5049931;28;19912;-75
2021/03/27 04:53:55;;;;;;;;;;;;;;;;;;5043816;28;19924;-75
2021/03/27 04:56:20;;;;;;;;;;;;;;;;;;5046472;28;19917;-75
2021/03/27 04:58:48;;;;;;;;;;;;;;;;;;5055102;28;19912;-74
2021/03/27 05:01:22;;;;;;;;;;;;;;;;;;5069620;28;20038;-75
2021/03/27 05:03:58;;;;;;;;;;;;;;;;;;5031294;28;19962;-75
2021/03/27 05:06:42;;;;;;;;;;;;;;;;;;5063540;28;19963;-75
2021/03/27 05:09:14;;;;;;;;;;;;;;;;;;5048533;28;19974;-75
2021/03/27 05:11:48;;;;;;;;;;;;;;;;;;5048561;28;19919;-76
2021/03/27 05:14:23;;;;;;;;;;;;;;;;;;5049821;28;19917;-76
2021/03/27 05:16:51;;;;;;;;;;;;;;;;;;5049895;28;19959;-77
2021/03/27 05:19:18;;;;;;;;;;;;;;;;;;5050435;28;19935;-77
2021/03/27 05:21:50;;;;;;;;;;;;;;;;;;5050604;28;19921;-77
2021/03/27 05:24:23;;;;;;;;;;;;;;;;;;5053021;28;20019;-77
2021/03/27 05:26:48;;;;;;;;;;;;;;;;;;5069917;28;19912;-77
2021/03/27 05:29:14;;;;;;;;;;;;;;;;;;5054419;28;19920;-77
2021/03/27 05:31:39;;;;;;;;;;;;;;;;;;5053380;28;20362;-77
2021/03/27 05:34:23;;;;;;;;;;;;;;;;;;5053619;28;19913;-77
2021/03/27 05:36:59;;;;;;;;;;;;;;;;;;5053518;28;20019;-78
2021/03/27 05:39:24;;;;;;;;;;;;;;;;;;5069716;28;19947;-77
2021/03/27 05:42:08;;;;;;;;;;;;;;;;;;5052655;28;19951;-78
2021/03/27 05:44:34;;;;;;;;;;;;;;;;;;5054372;28;19912;-78
2021/03/27 05:47:11;;;;;;;;;;;;;;;;;;5052884;28;19919;-78
2021/03/27 05:49:42;;;;;;;;;;;;;;;;;;5049888;28;19924;-79
2021/03/27 05:52:13;;;;;;;;;;;;;;;;;;5084954;28;19920;-78
2021/03/27 05:54:39;;;;;;;;;;;;;;;;;;5051915;28;20027;-78
2021/03/27 05:57:19;;;;;;;;;;;;;;;;;;5086166;28;19912;-77
2021/03/27 05:59:53;;;;;;;;;;;;;;;;;;5065985;28;20020;-77
2021/03/27 06:02:21;;;;;;;;;;;;;;;;;;5053049;28;19923;-78
2021/03/27 06:04:50;;;;;;;;;;;;;;;;;;5052796;28;19913;-77
2021/03/27 06:07:34;;;;;;;;;;;;;;;;;;5054326;28;19959;-77
2021/03/27 06:10:20;;;;;;;;;;;;;;;;;;5052490;28;19916;-77
2021/03/27 06:12:56;;;;;;;;;;;;;;;;;;5086244;28;20306;-77
2021/03/27 06:15:30;;;;;;;;;;;;;;;;;;5052385;28;19924;-76
2021/03/27 06:18:17;;;;;;;;;;;;;;;;;;5034103;28;19917;-76
2021/03/27 06:20:42;;;;;;;;;;;;;;;;;;5049796;28;19913;-76
2021/03/27 06:23:26;;;;;;;;;;;;;;;;;;5041962;28;20058;-76
2021/03/27 06:25:57;;;;;;;;;;;;;;;;;;5052306;28;19952;-76
2021/03/27 06:28:28;;;;;;;;;;;;;;;;;;5051452;28;19964;-76
2021/03/27 06:30:56;;;;;;;;;;;;;;;;;;5053231;28;19913;-76
2021/03/27 06:33:24;;;;;;;;;;;;;;;;;;5052688;28;19916;-76
2021/03/27 06:35:52;;;;;;;;;;;;;;;;;;5051836;28;20004;-76
2021/03/27 06:38:41;;;;;;;;;;;;;;;;;;5051974;28;19970;-76
2021/03/27 06:41:24;;;;;;;;;;;;;;;;;;5049482;28;19920;-77
2021/03/27 06:44:08;;;;;;;;;;;;;;;;;;5032937;28;19917;-76
2021/03/27 06:46:38;;;;;;;;;;;;;;;;;;5079136;28;20012;-76
2021/03/27 06:49:22;;;;;;;;;;;;;;;;;;5082789;28;20456;-76
2021/03/27 06:51:59;;;;;;;;;;;;;;;;;;5049929;28;20042;-75
2021/03/27 06:54:34;;;;;;;;;;;;;;;;;;5051242;28;20394;-75
2021/03/27 06:57:17;;;;;;;;;;;;;;;;;;5051734;28;19934;-75
2021/03/27 06:59:55;;;;;;;;;;;;;;;;;;5072656;28;19916;-76
2021/03/27 07:02:39;;;;;;;;;;;;;;;;;;5063900;28;19913;-75
2021/03/27 07:05:43;;;;;;;;;;;;;;;;;;5051745;28;19987;-76
2021/03/27 07:08:11;;;;;;;;;;;;;;;;;;5070578;28;19939;-76
2021/03/27 07:10:55;;;;;;;;;;;;;;;;;;5053473;28;19916;-75
2021/03/27 07:13:38;;;;;;;;;;;;;;;;;;5059164;28;20290;-75
2021/03/27 07:16:12;;;;;;;;;;;;;;;;;;5052090;28;20018;-76
2021/03/27 07:18:57;;;;;;;;;;;;;;;;;;5051829;28;19916;-75
2021/03/27 07:21:41;;;;;;;;;;;;;;;;;;5069539;22;20054;-75
2021/03/27 07:24:23;;;;;;;;;;;;;;;;;;5051798;28;19920;-76
2021/03/27 07:27:08;;;;;;;;;;;;;;;;;;5033661;28;20333;-76
2021/03/27 07:29:34;;;;;;;;;;;;;;;;;;5011374;28;19952;-76
2021/03/27 07:31:59;;;;;;;;;;;;;;;;;;5052467;28;19944;-76
2021/03/27 07:34:24;;;;;;;;;;;;;;;;;;5051398;28;19909;-76
2021/03/27 07:36:49;;;;;;;;;;;;;;;;;;5050647;28;19912;-76
2021/03/27 07:39:27;;;;;;;;;;;;;;;;;;5052250;28;19959;-76
2021/03/27 07:42:11;;;;;;;;;;;;;;;;;;5050177;28;20263;-76
2021/03/27 07:45:00;;;;;;;;;;;;;;;;;;5066670;28;19908;-76
2021/03/27 07:47:25;;;;;;;;;;;;;;;;;;5013113;28;19920;-76
2021/03/27 07:49:53;;;;;;;;;;;;;;;;;;5064227;28;19921;-76
2021/03/27 07:52:27;;;;;;;;;;;;;;;;;;5051586;28;19909;-76
2021/03/27 07:54:55;;;;;;;;;;;;;;;;;;5054028;28;20026;-74
2021/03/27 07:57:39;;;;;;;;;;;;;;;;;;5032367;28;20008;-74
2021/03/27 08:00:10;;;;;;;;;;;;;;;;;;5051879;28;19917;-74
2021/03/27 08:02:54;;;;;;;;;;;;;;;;;;5051096;28;19915;-74
2021/03/27 08:05:37;;;;;;;;;;;;;;;;;;5051580;28;19966;-74
2021/03/27 08:08:21;;;;;;;;;;;;;;;;;;5030842;28;19974;-74
2021/03/27 08:10:49;;;;;;;;;;;;;;;;;;5031950;28;19909;-74
2021/03/27 08:13:27;;;;;;;;;;;;;;;;;;5031044;28;19959;-74
2021/03/27 08:16:02;;;;;;;;;;;;;;;;;;5032307;28;19909;-74
2021/03/27 08:18:39;;;;;;;;;;;;;;;;;;5030984;28;20367;-74
2021/03/27 08:21:07;;;;;;;;;;;;;;;;;;5030527;28;19920;-74
2021/03/27 08:23:50;;;;;;;;;;;;;;;;;;5049446;28;20374;-74
2021/03/27 08:26:20;;;;;;;;;;;;;;;;;;5051510;28;19944;-74
2021/03/27 08:29:06;;;;;;;;;;;;;;;;;;5050020;28;19912;-74
2021/03/27 08:32:10;;;;;;;;;;;;;;;;;;5031989;28;20393;-74
2021/03/27 08:34:38;;;;;;;;;;;;;;;;;;5043904;28;19923;-74
2021/03/27 08:37:19;;;;;;;;;;;;;;;;;;5051202;28;19920;-72
2021/03/27 08:39:47;;;;;;;;;;;;;;;;;;5050129;28;19919;-72
2021/03/27 08:42:12;;;;;;;;;;;;;;;;;;5060946;28;19924;-72
2021/03/27 08:44:44;;;;;;;;;;;;;;;;;;5053503;28;19942;-72
2021/03/27 08:47:29;;;;;;;;;;;;;;;;;;5050754;28;19913;-72
2021/03/27 08:50:06;;;;;;;;;;;;;;;;;;5044037;28;19921;-72
2021/03/27 08:52:34;;;;;;;;;;;;;;;;;;5031446;28;19915;-72
2021/03/27 08:55:18;;;;;;;;;;;;;;;;;;5046468;28;19952;-72
2021/03/27 08:57:54;;;;;;;;;;;;;;;;;;5034265;28;19916;-72
2021/03/27 09:00:31;;;;;;;;;;;;;;;;;;5034079;28;19908;-72
2021/03/27 09:02:56;;;;;;;;;;;;;;;;;;5034017;28;19913;-72
2021/03/27 09:05:30;;;;;;;;;;;;;;;;;;5035293;28;20394;-72
2021/03/27 09:07:58;;;;;;;;;;;;;;;;;;5033850;28;19993;-72
2021/03/27 09:10:29;;;;;;;;;;;;;;;;;;5033999;28;19916;-74
2021/03/27 09:12:59;;;;;;;;;;;;;;;;;;5034096;28;20433;-75
2021/03/27 09:15:45;;;;;;;;;;;;;;;;;;5051179;28;19946;-75
2021/03/27 09:18:19;;;;;;;;;;;;;;;;;;5023706;28;19999;-75
2021/03/27 09:21:03;;;;;;;;;;;;;;;;;;5054881;28;19931;-75
2021/03/27 09:23:47;;;;;;;;;;;;;;;;;;5053602;28;19915;-77
2021/03/27 09:26:16;;;;;;;;;;;;;;;;;;5054629;28;19912;-74
2021/03/27 09:28:47;;;;;;;;;;;;;;;;;;5053585;28;20043;-74
2021/03/27 09:31:48;;;;;;;;;;;;;;;;;;5054812;28;19996;-74
2021/03/27 09:34:33;;;;;;;;;;;;;;;;;;4977102;28;19910;-74
2021/03/27 09:36:59;;;;;;;;;;;;;;;;;;5018550;28;19944;-74
2021/03/27 09:39:25;;;;;;;;;;;;;;;;;;5053492;28;19952;-74
2021/03/27 09:42:05;;;;;;;;;;;;;;;;;;5053434;28;19916;-73
2021/03/27 09:44:30;;;;;;;;;;;;;;;;;;5053797;28;19908;-73
2021/03/27 09:46:56;;;;;;;;;;;;;;;;;;5052779;28;19909;-75
2021/03/27 09:49:29;;;;;;;;;;;;;;;;;;5047111;28;20272;-75
2021/03/27 09:52:13;;;;;;;;;;;;;;;;;;5049189;28;19952;-74
2021/03/27 09:54:45;;;;;;;;;;;;;;;;;;5054735;28;19908;-75
2021/03/27 09:57:20;;;;;;;;;;;;;;;;;;5053986;28;19909;-74
2021/03/27 09:59:46;;;;;;;;;;;;;;;;;;5036576;28;19936;-74
2021/03/27 10:02:15;;;;;;;;;;;;;;;;;;5036324;28;20382;-74
2021/03/27 10:04:40;;;;;;;;;;;;;;;;;;5052458;28;19912;-74
2021/03/27 10:07:08;;;;;;;;;;;;;;;;;;5041389;28;20371;-74
2021/03/27 10:09:39;;;;;;;;;;;;;;;;;;5015865;28;19909;-74
2021/03/27 10:12:06;;;;;;;;;;;;;;;;;;5033641;28;19913;-74
2021/03/27 10:14:33;;;;;;;;;;;;;;;;;;5048327;28;19940;-74
2021/03/27 10:17:00;;;;;;;;;;;;;;;;;;5059897;28;19912;-74
2021/03/27 10:19:27;;;;;;;;;;;;;;;;;;5017966;28;20312;-75
2021/03/27 10:21:58;;;;;;;;;;;;;;;;;;5051045;28;19959;-74
2021/03/27 10:24:34;;;;;;;;;;;;;;;;;;5052442;28;19909;-75
2021/03/27 10:27:00;;;;;;;;;;;;;;;;;;5059786;28;19947;-75
2021/03/27 10:29:44;;;;;;;;;;;;;;;;;;5052565;28;19951;-74
2021/03/27 10:32:16;;;;;;;;;;;;;;;;;;5048804;28;19909;-74
2021/03/27 10:34:41;;;;;;;;;;;;;;;;;;5052016;28;19908;-75
2021/03/27 10:37:07;;;;;;;;;;;;;;;;;;5055846;28;20422;-74
2021/03/27 10:39:32;;;;;;;;;;;;;;;;;;5049424;28;19908;-74
2021/03/27 10:42:21;;;;;;;;;;;;;;;;;;5049622;28;19916;-74
2021/03/27 10:45:05;;;;;;;;;;;;;;;;;;5040623;28;19951;-74
2021/03/27 10:47:31;;;;;;;;;;;;;;;;;;5051846;28;19909;-74
2021/03/27 10:50:08;;;;;;;;;;;;;;;;;;5055848;28;20342;-76
2021/03/27 10:52:51;;;;;;;;;;;;;;;;;;5061766;28;19916;-74
2021/03/27 10:55:18;;;;;;;;;;;;;;;;;;5052827;28;20282;-74
2021/03/27 10:57:58;;;;;;;;;;;;;;;;;;5051875;28;19913;-74
2021/03/27 11:00:24;;;;;;;;;;;;;;;;;;5049290;28;19932;-74
2021/03/27 11:02:54;;;;;;;;;;;;;;;;;;5039249;28;20378;-74
2021/03/27 11:05:19;;;;;;;;;;;;;;;;;;5051135;28;19913;-74
2021/03/27 11:07:47;;;;;;;;;;;;;;;;;;5051617;28;19909;-75
2021/03/27 11:10:32;;;;;;;;;;;;;;;;;;5053002;28;20020;-75
2021/03/27 11:13:15;;;;;;;;;;;;;;;;;;5052417;28;19964;-75
2021/03/27 11:15:44;;;;;;;;;;;;;;;;;;5051668;28;20047;-74
2021/03/27 11:18:12;;;;;;;;;;;;;;;;;;5052384;28;19915;-75
2021/03/27 11:20:43;;;;;;;;;;;;;;;;;;5055348;28;19947;-74
2021/03/27 11:23:17;;;;;;;;;;;;;;;;;;5052076;28;20390;-74
2021/03/27 11:26:07;;;;;;;;;;;;;;;;;;5052951;28;19909;-74
2021/03/27 11:28:39;;;;;;;;;;;;;;;;;;5051164;28;19919;-74
2021/03/27 11:31:13;;;;;;;;;;;;;;;;;;5051489;28;19919;-74
2021/03/27 11:33:41;;;;;;;;;;;;;;;;;;5051882;28;19916;-74
2021/03/27 11:36:23;;;;;;;;;;;;;;;;;;5052259;28;19970;-74
2021/03/27 11:39:06;;;;;;;;;;;;;;;;;;5051519;28;19965;-74
2021/03/27 11:41:40;;;;;;;;;;;;;;;;;;5051023;28;19908;-74
2021/03/27 11:44:05;;;;;;;;;;;;;;;;;;5050773;28;19995;-74
2021/03/27 11:46:30;;;;;;;;;;;;;;;;;;5050887;28;20319;-75
2021/03/27 11:49:02;;;;;;;;;;;;;;;;;;5050810;28;20442;-75
2021/03/27 11:51:28;;;;;;;;;;;;;;;;;;5050728;28;19924;-75
2021/03/27 11:54:00;;;;;;;;;;;;;;;;;;5050846;28;19947;-75
2021/03/27 11:56:41;;;;;;;;;;;;;;;;;;5051827;28;19909;-75
2021/03/27 12:02:13;;;;;;;;;;;;;;;;;;5053282;28;20263;-75
2021/03/27 12:04:54;;;;;;;;;;;;;;;;;;5050706;28;20363;-75
2021/03/27 12:07:22;;;;;;;;;;;;;;;;;;5050887;28;19962;-75
2021/03/27 12:10:06;;;;;;;;;;;;;;;;;;5050627;28;19931;-75
2021/03/27 12:12:50;;;;;;;;;;;;;;;;;;5051620;28;19936;-74
2021/03/27 12:15:18;;;;;;;;;;;;;;;;;;5052030;28;19913;-75
2021/03/27 12:17:46;;;;;;;;;;;;;;;;;;5050348;28;20011;-75
2021/03/27 12:20:14;;;;;;;;;;;;;;;;;;5050471;28;19917;-75
2021/03/27 12:22:42;;;;;;;;;;;;;;;;;;5050289;28;19962;-75
2021/03/27 12:25:16;;;;;;;;;;;;;;;;;;5046234;28;20012;-75
2021/03/27 12:27:47;;;;;;;;;;;;;;;;;;5031878;28;19913;-74
2021/03/27 12:30:15;;;;;;;;;;;;;;;;;;5030661;28;19986;-79
2021/03/27 12:32:49;;;;;;;;;;;;;;;;;;5002009;28;19948;-79
2021/03/27 12:35:17;;;;;;;;;;;;;;;;;;5034871;28;19909;-80
2021/03/27 12:38:01;;;;;;;;;;;;;;;;;;5036051;28;19915;-79
2021/03/27 12:40:26;;;;;;;;;;;;;;;;;;5035507;28;20372;-77
2021/03/27 12:43:12;;;;;;;;;;;;;;;;;;5035566;28;19909;-78
2021/03/27 12:45:44;;;;;;;;;;;;;;;;;;5041162;28;19912;-77
2021/03/27 12:48:29;;;;;;;;;;;;;;;;;;5070934;28;19999;-77
2021/03/27 12:51:08;;;;;;;;;;;;;;;;;;5037169;28;19916;-77
2021/03/27 12:53:34;;;;;;;;;;;;;;;;;;5053958;28;20362;-77
2021/03/27 12:56:14;;;;;;;;;;;;;;;;;;5045277;28;19964;-77
2021/03/27 12:58:44;;;;;;;;;;;;;;;;;;5052994;28;19913;-77
2021/03/27 13:01:10;;;;;;;;;;;;;;;;;;5037169;28;19920;-77
2021/03/27 13:03:53;;;;;;;;;;;;;;;;;;5054626;28;19909;-77
2021/03/27 13:06:54;;;;;;;;;;;;;;;;;;5054120;28;19919;-77
2021/03/27 13:09:22;;;;;;;;;;;;;;;;;;5032734;28;19909;-77
2021/03/27 13:11:54;;;;;;;;;;;;;;;;;;5032781;28;19990;-77
2021/03/27 13:14:38;;;;;;;;;;;;;;;;;;5054845;28;19908;-77
2021/03/27 13:17:23;;;;;;;;;;;;;;;;;;5053551;28;19999;-76
2021/03/27 13:19:52;;;;;;;;;;;;;;;;;;5054029;28;19916;-76
2021/03/27 13:22:22;;;;;;;;;;;;;;;;;;5053647;28;19924;-77
2021/03/27 13:24:50;;;;;;;;;;;;;;;;;;5053372;28;19920;-77
2021/03/27 13:27:36;;;;;;;;;;;;;;;;;;5054358;28;19931;-77
2021/03/27 13:30:13;;;;;;;;;;;;;;;;;;5052569;28;19908;-76
2021/03/27 13:32:39;;;;;;;;;;;;;;;;;;5049270;28;19913;-77
2021/03/27 13:35:14;;;;;;;;;;;;;;;;;;5017131;28;19920;-76
2021/03/27 13:37:43;;;;;;;;;;;;;;;;;;5033552;28;19909;-77
2021/03/27 13:40:17;;;;;;;;;;;;;;;;;;5033401;28;19913;-77
2021/03/27 13:42:55;;;;;;;;;;;;;;;;;;5031966;28;20003;-77
2021/03/27 13:45:22;;;;;;;;;;;;;;;;;;5053586;28;19916;-77
2021/03/27 13:48:07;;;;;;;;;;;;;;;;;;5045253;28;20380;-77
2021/03/27 13:50:32;;;;;;;;;;;;;;;;;;5047437;28;19943;-77
2021/03/27 13:53:00;;;;;;;;;;;;;;;;;;5051635;28;20363;-77
2021/03/27 13:55:33;;;;;;;;;;;;;;;;;;5051552;28;19908;-77
2021/03/27 13:58:05;;;;;;;;;;;;;;;;;;5036599;28;19920;-77
2021/03/27 14:00:38;;;;;;;;;;;;;;;;;;5053900;28;19912;-77
2021/03/27 14:03:22;;;;;;;;;;;;;;;;;;5036143;28;19913;-77
2021/03/27 14:06:14;;;;;;;;;;;;;;;;;;5036029;28;20743;-77
2021/03/27 14:08:42;;;;;;;;;;;;;;;;;;5035287;28;19916;-78
2021/03/27 14:11:10;;;;;;;;;;;;;;;;;;5052623;28;19913;-77
2021/03/27 14:13:39;;;;;;;;;;;;;;;;;;5052390;28;20351;-77
2021/03/27 14:16:08;;;;;;;;;;;;;;;;;;5052655;28;19913;-77
2021/03/27 14:18:36;;;;;;;;;;;;;;;;;;5053443;28;20275;-77
2021/03/27 14:21:16;;;;;;;;;;;;;;;;;;5052213;28;19920;-77
2021/03/27 14:23:41;;;;;;;;;;;;;;;;;;5036078;28;19915;-77
2021/03/27 14:26:14;;;;;;;;;;;;;;;;;;5052236;28;19909;-77
2021/03/27 14:28:40;;;;;;;;;;;;;;;;;;5035787;28;19939;-77
2021/03/27 14:31:25;;;;;;;;;;;;;;;;;;5053499;28;19915;-77
2021/03/27 14:34:09;;;;;;;;;;;;;;;;;;5037648;28;19977;-77
2021/03/27 14:36:47;;;;;;;;;;;;;;;;;;5035469;28;19912;-77
2021/03/27 14:39:18;;;;;;;;;;;;;;;;;;5052090;28;19919;-77
2021/03/27 14:42:03;;;;;;;;;;;;;;;;;;5051691;28;19962;-77
2021/03/27 14:44:34;;;;;;;;;;;;;;;;;;5052126;28;19913;-77
2021/03/27 14:47:00;;;;;;;;;;;;;;;;;;5051662;28;19909;-77
2021/03/27 14:49:42;;;;;;;;;;;;;;;;;;5052007;28;19909;-77
2021/03/27 14:52:26;;;;;;;;;;;;;;;;;;5051623;28;19912;-77
2021/03/27 14:55:02;;;;;;;;;;;;;;;;;;5050962;28;19916;-77
2021/03/27 14:58:03;;;;;;;;;;;;;;;;;;5068078;28;20359;-77
2021/03/27 15:00:48;;;;;;;;;;;;;;;;;;4965694;28;19998;-77
2021/03/27 15:03:23;;;;;;;;;;;;;;;;;;5029011;28;20382;-77
2021/03/27 15:05:49;;;;;;;;;;;;;;;;;;5047611;28;20008;-77
2021/03/27 15:08:27;;;;;;;;;;;;;;;;;;5014460;28;19955;-77
2021/03/27 15:10:56;;;;;;;;;;;;;;;;;;5030864;28;19952;-77
2021/03/27 15:13:38;;;;;;;;;;;;;;;;;;5031762;28;19970;-77
2021/03/27 15:16:12;;;;;;;;;;;;;;;;;;5051591;28;19912;-77
2021/03/27 15:18:39;;;;;;;;;;;;;;;;;;5051700;28;19996;-77
2021/03/27 15:21:06;;;;;;;;;;;;;;;;;;5034483;28;19928;-77
2021/03/27 15:23:31;;;;;;;;;;;;;;;;;;5035077;28;19908;-77
2021/03/27 15:28:47;;;;;;;;;;;;;;;;;;5051145;28;19913;-77
2021/03/27 15:31:33;;;;;;;;;;;;;;;;;;5050298;28;20107;-77
2021/03/27 15:33:58;;;;;;;;;;;;;;;;;;5034569;28;19913;-76
2021/03/27 15:36:30;;;;;;;;;;;;;;;;;;5051141;28;20548;-77
2021/03/27 15:39:14;;;;;;;;;;;;;;;;;;5050911;28;19919;-77
2021/03/27 15:41:51;;;;;;;;;;;;;;;;;;5051962;28;19908;-76
2021/03/27 15:44:17;;;;;;;;;;;;;;;;;;5034354;28;19909;-77
2021/03/27 15:46:56;;;;;;;;;;;;;;;;;;5050671;28;19909;-76
2021/03/27 15:49:24;;;;;;;;;;;;;;;;;;5050623;28;19908;-77
2021/03/27 15:51:57;;;;;;;;;;;;;;;;;;5050596;28;20013;-76
2021/03/27 15:54:29;;;;;;;;;;;;;;;;;;5033100;28;19909;-77
2021/03/27 15:56:58;;;;;;;;;;;;;;;;;;5051713;28;19909;-77
2021/03/27 15:59:30;;;;;;;;;;;;;;;;;;5050827;28;19913;-76
2021/03/27 16:02:09;;;;;;;;;;;;;;;;;;5050508;28;19912;-76
2021/03/27 16:05:00;;;;;;;;;;;;;;;;;;5050408;28;19970;-76
2021/03/27 16:07:26;;;;;;;;;;;;;;;;;;5048879;28;19908;-76
2021/03/27 16:09:52;;;;;;;;;;;;;;;;;;5049567;28;19997;-76
2021/03/27 16:12:37;;;;;;;;;;;;;;;;;;5049192;28;19912;-77
2021/03/27 16:15:02;;;;;;;;;;;;;;;;;;5050736;28;19908;-76
2021/03/27 16:17:37;;;;;;;;;;;;;;;;;;5050469;28;19913;-76
2021/03/27 16:20:15;;;;;;;;;;;;;;;;;;5030801;28;19921;-76
2021/03/27 16:22:40;;;;;;;;;;;;;;;;;;5031793;28;19917;-77
2021/03/27 16:25:24;;;;;;;;;;;;;;;;;;5046768;28;19932;-76
2021/03/27 16:27:53;;;;;;;;;;;;;;;;;;5047163;28;19909;-76
2021/03/27 16:30:24;;;;;;;;;;;;;;;;;;5031519;28;19920;-77
2021/03/27 16:33:08;;;;;;;;;;;;;;;;;;5047438;28;19909;-82
2021/03/27 16:35:33;;;;;;;;;;;;;;;;;;5047113;28;19923;-78
2021/03/27 16:38:22;;;;;;;;;;;;;;;;;;5031995;28;19988;-85
2021/03/27 16:40:50;;;;;;;;;;;;;;;;;;5022453;28;19935;-80
2021/03/27 16:43:16;;;;;;;;;;;;;;;;;;5049060;28;19955;-77
2021/03/27 16:45:49;;;;;;;;;;;;;;;;;;5050586;28;19996;-87
2021/03/27 16:48:21;;;;;;;;;;;;;;;;;;5033665;28;19935;-80
2021/03/27 16:50:55;;;;;;;;;;;;;;;;;;5049862;28;19975;-78
2021/03/27 16:53:29;;;;;;;;;;;;;;;;;;5051355;28;19916;-85
2021/03/27 16:56:17;;;;;;;;;;;;;;;;;;5051028;28;20332;-84
2021/03/27 16:58:48;;;;;;;;;;;;;;;;;;5051010;28;19908;-77
2021/03/27 17:01:34;;;;;;;;;;;;;;;;;;5051627;28;19913;-76
2021/03/27 17:04:05;;;;;;;;;;;;;;;;;;5049781;28;19920;-77
2021/03/27 17:06:37;;;;;;;;;;;;;;;;;;5053944;28;20386;-75
2021/03/27 17:09:21;;;;;;;;;;;;;;;;;;5045960;28;19912;-75
2021/03/27 17:12:09;;;;;;;;;;;;;;;;;;5046067;28;19913;-76
2021/03/27 17:14:59;;;;;;;;;;;;;;;;;;5049964;28;19959;-76
2021/03/27 17:17:31;;;;;;;;;;;;;;;;;;5052794;28;19912;-76
2021/03/27 17:20:01;;;;;;;;;;;;;;;;;;5054478;28;19943;-76
2021/03/27 17:22:26;;;;;;;;;;;;;;;;;;5020270;28;19908;-76
2021/03/27 17:24:54;;;;;;;;;;;;;;;;;;5054571;28;20294;-76
2021/03/27 17:27:23;;;;;;;;;;;;;;;;;;5053532;28;19916;-76
2021/03/27 17:29:52;;;;;;;;;;;;;;;;;;5037192;28;19912;-76
2021/03/27 17:32:39;;;;;;;;;;;;;;;;;;5037357;28;20278;-76
2021/03/27 17:35:10;;;;;;;;;;;;;;;;;;5036426;28;20327;-76
2021/03/27 17:37:54;;;;;;;;;;;;;;;;;;5054401;28;20390;-76